createdAt,value
2016-09-28T00:00:07.641Z,11.64
2016-09-28T00:01:07.145Z,11.62
2016-09-28T00:02:07.734Z,11.55
2016-09-28T00:03:07.272Z,11.52
2016-09-28T00:04:07.764Z,11.59
2016-09-28T00:05:07.264Z,11.56
2016-09-28T00:06:07.845Z,11.52
2016-09-28T00:07:07.480Z,11.58
2016-09-28T00:08:08.068Z,11.57
2016-09-28T00:09:07.595Z,11.56
2016-09-28T00:10:07.182Z,11.57
2016-09-28T00:11:07.702Z,11.61
2016-09-28T00:12:07.251Z,11.65
2016-09-28T00:13:07.863Z,11.67
2016-09-28T00:14:07.361Z,11.61
2016-09-28T00:15:07.800Z,11.56
2016-09-28T00:16:07.203Z,11.49
2016-09-28T00:17:07.980Z,11.48
2016-09-28T00:18:07.450Z,11.46
2016-09-28T00:19:08.031Z,11.50
2016-09-28T00:20:07.565Z,11.50
2016-09-28T00:21:08.133Z,11.44
2016-09-28T00:22:07.742Z,11.44
2016-09-28T00:23:07.312Z,11.43
2016-09-28T00:24:07.887Z,11.45
2016-09-28T00:25:07.364Z,11.45
2016-09-28T00:26:07.945Z,11.38
2016-09-28T00:27:07.734Z,11.34
2016-09-28T00:28:07.286Z,11.28
2016-09-28T00:29:07.850Z,11.22
2016-09-28T00:30:07.421Z,11.27
2016-09-28T00:31:08.005Z,11.28
2016-09-28T00:32:07.602Z,11.27
2016-09-28T00:33:07.091Z,11.20
2016-09-28T00:34:07.564Z,11.21
2016-09-28T00:35:07.064Z,11.22
2016-09-28T00:36:07.609Z,11.26
2016-09-28T00:37:07.171Z,11.26
2016-09-28T00:38:07.754Z,11.36
2016-09-28T00:39:07.234Z,11.30
2016-09-28T00:40:07.863Z,11.28
2016-09-28T00:41:07.473Z,11.30
2016-09-28T00:42:08.125Z,11.30
2016-09-28T00:43:07.654Z,11.29
2016-09-28T00:44:07.110Z,11.28
2016-09-28T00:45:07.685Z,11.25
2016-09-28T00:46:07.323Z,11.24
2016-09-28T00:47:07.940Z,11.25
2016-09-28T00:48:07.546Z,11.15
2016-09-28T00:49:08.093Z,11.08
2016-09-28T00:50:07.746Z,11.11
2016-09-28T00:51:07.242Z,11.11
2016-09-28T00:52:07.855Z,11.09
2016-09-28T00:53:07.361Z,11.03
2016-09-28T00:54:07.970Z,11.12
2016-09-28T00:55:07.413Z,11.08
2016-09-28T00:56:07.973Z,11.10
2016-09-28T00:57:07.515Z,11.07
2016-09-28T00:58:08.080Z,11.02
2016-09-28T00:59:07.654Z,11.05
2016-09-28T01:00:07.103Z,11.06
2016-09-28T01:01:07.642Z,11.03
2016-09-28T01:02:07.176Z,11.06
2016-09-28T01:03:07.664Z,11.02
2016-09-28T01:04:07.174Z,10.99
2016-09-28T01:05:07.693Z,11.00
2016-09-28T01:06:07.230Z,11.00
2016-09-28T01:07:08.322Z,10.91
2016-09-28T01:08:07.780Z,10.88
2016-09-28T01:09:07.289Z,10.90
2016-09-28T01:10:07.583Z,10.97
2016-09-28T01:11:08.070Z,10.98
2016-09-28T01:12:07.571Z,11.02
2016-09-28T01:13:08.134Z,10.98
2016-09-28T01:14:07.690Z,10.90
2016-09-28T01:15:07.237Z,10.93
2016-09-28T01:16:07.520Z,10.90
2016-09-28T01:17:07.381Z,10.87
2016-09-28T01:18:07.958Z,10.86
2016-09-28T01:19:07.488Z,10.88
2016-09-28T01:20:07.929Z,10.89
2016-09-28T01:21:07.703Z,10.94
2016-09-28T01:22:07.273Z,10.88
2016-09-28T01:23:07.988Z,10.80
2016-09-28T01:24:07.500Z,10.78
2016-09-28T01:25:07.922Z,10.76
2016-09-28T01:26:07.460Z,10.75
2016-09-28T01:27:08.070Z,10.73
2016-09-28T01:28:07.958Z,10.75
2016-09-28T01:29:08.171Z,10.75
2016-09-28T01:30:07.749Z,10.73
2016-09-28T01:31:07.288Z,10.74
2016-09-28T01:32:07.923Z,10.71
2016-09-28T01:33:07.683Z,10.74
2016-09-28T01:34:07.210Z,10.76
2016-09-28T01:35:07.121Z,10.71
2016-09-28T01:36:07.657Z,10.70
2016-09-28T01:37:07.174Z,10.70
2016-09-28T01:38:07.762Z,10.66
2016-09-28T01:39:07.038Z,10.64
2016-09-28T01:40:07.352Z,10.59
2016-09-28T01:41:07.808Z,10.67
2016-09-28T01:42:07.313Z,10.75
2016-09-28T01:43:07.880Z,10.79
2016-09-28T01:44:07.503Z,10.78
2016-09-28T01:45:07.414Z,10.75
2016-09-28T01:46:07.985Z,10.76
2016-09-28T01:47:07.859Z,10.80
2016-09-28T01:48:07.461Z,10.66
2016-09-28T01:49:07.596Z,10.63
2016-09-28T01:50:07.141Z,10.64
2016-09-28T01:51:07.713Z,10.63
2016-09-28T01:52:07.995Z,10.56
2016-09-28T01:53:07.465Z,10.59
2016-09-28T01:54:07.678Z,10.64
2016-09-28T01:55:07.946Z,10.72
2016-09-28T01:56:07.561Z,10.77
2016-09-28T01:57:07.341Z,10.79
2016-09-28T01:58:07.865Z,10.69
2016-09-28T01:59:07.416Z,10.65
2016-09-28T02:00:07.837Z,10.60
2016-09-28T02:01:07.980Z,10.62
2016-09-28T02:02:07.558Z,10.61
2016-09-28T02:03:08.075Z,10.57
2016-09-28T02:04:07.654Z,10.57
2016-09-28T02:05:07.108Z,10.54
2016-09-28T02:06:07.570Z,10.60
2016-09-28T02:07:07.372Z,10.65
2016-09-28T02:08:07.869Z,10.69
2016-09-28T02:09:07.423Z,10.68
2016-09-28T02:10:08.048Z,10.66
2016-09-28T02:11:07.500Z,10.53
2016-09-28T02:12:07.954Z,10.47
2016-09-28T02:13:07.647Z,10.50
2016-09-28T02:14:07.119Z,10.41
2016-09-28T02:15:07.614Z,10.39
2016-09-28T02:16:07.159Z,10.43
2016-09-28T02:17:07.841Z,10.39
2016-09-28T02:18:07.351Z,10.39
2016-09-28T02:19:07.856Z,10.36
2016-09-28T02:20:07.362Z,10.42
2016-09-28T02:21:08.174Z,10.44
2016-09-28T02:22:07.726Z,10.40
2016-09-28T02:23:07.277Z,10.41
2016-09-28T02:24:07.846Z,10.34
2016-09-28T02:25:07.347Z,10.35
2016-09-28T02:26:07.888Z,10.33
2016-09-28T02:27:07.399Z,10.35
2016-09-28T02:28:08.015Z,10.39
2016-09-28T02:29:07.548Z,10.36
2016-09-28T02:30:08.088Z,10.31
2016-09-28T02:31:07.472Z,10.34
2016-09-28T02:32:07.469Z,10.33
2016-09-28T02:33:08.100Z,10.33
2016-09-28T02:34:07.604Z,10.29
2016-09-28T02:35:07.120Z,10.24
2016-09-28T02:36:07.737Z,10.29
2016-09-28T02:37:07.264Z,10.29
2016-09-28T02:38:07.885Z,10.28
2016-09-28T02:39:07.927Z,10.30
2016-09-28T02:40:07.717Z,10.30
2016-09-28T02:41:07.376Z,10.26
2016-09-28T02:42:07.911Z,10.21
2016-09-28T02:43:07.344Z,10.18
2016-09-28T02:44:07.857Z,10.17
2016-09-28T02:45:07.307Z,10.20
2016-09-28T02:46:07.786Z,10.25
2016-09-28T02:47:07.281Z,10.25
2016-09-28T02:48:07.757Z,10.20
2016-09-28T02:49:07.266Z,10.19
2016-09-28T02:50:07.802Z,10.24
2016-09-28T02:51:07.830Z,10.28
2016-09-28T02:52:07.351Z,10.32
2016-09-28T02:53:07.889Z,10.23
2016-09-28T02:54:07.405Z,10.29
2016-09-28T02:55:07.979Z,10.24
2016-09-28T02:56:07.522Z,10.26
2016-09-28T02:57:08.139Z,10.34
2016-09-28T02:58:07.622Z,10.25
2016-09-28T02:59:07.211Z,10.26
2016-09-28T03:00:07.766Z,10.24
2016-09-28T03:01:07.360Z,10.30
2016-09-28T03:02:08.006Z,10.31
2016-09-28T03:03:07.457Z,10.28
2016-09-28T03:04:08.009Z,10.27
2016-09-28T03:05:07.490Z,10.29
2016-09-28T03:06:08.058Z,10.26
2016-09-28T03:07:07.549Z,10.31
2016-09-28T03:08:08.122Z,10.28
2016-09-28T03:09:07.638Z,10.32
2016-09-28T03:10:07.100Z,10.25
2016-09-28T03:11:07.603Z,10.22
2016-09-28T03:12:07.093Z,10.20
2016-09-28T03:13:07.571Z,10.18
2016-09-28T03:14:08.151Z,10.24
2016-09-28T03:15:08.253Z,10.21
2016-09-28T03:16:07.746Z,10.19
2016-09-28T03:17:07.407Z,10.22
2016-09-28T03:18:07.290Z,10.19
2016-09-28T03:19:07.805Z,10.18
2016-09-28T03:20:07.406Z,10.17
2016-09-28T03:21:07.907Z,10.17
2016-09-28T03:22:07.616Z,10.14
2016-09-28T03:23:07.193Z,10.14
2016-09-28T03:24:07.701Z,10.12
2016-09-28T03:25:07.243Z,10.18
2016-09-28T03:27:07.507Z,10.05
2016-09-28T03:28:08.149Z,10.11
2016-09-28T03:29:07.638Z,10.04
2016-09-28T03:30:07.110Z,10.08
2016-09-28T03:31:07.691Z,10.13
2016-09-28T03:32:07.319Z,10.11
2016-09-28T03:33:07.875Z,10.11
2016-09-28T03:34:07.986Z,10.13
2016-09-28T03:35:07.476Z,10.19
2016-09-28T03:36:08.031Z,10.15
2016-09-28T03:37:07.638Z,10.08
2016-09-28T03:38:07.250Z,10.04
2016-09-28T03:39:07.883Z,10.08
2016-09-28T03:40:07.411Z,10.06
2016-09-28T03:41:07.921Z,10.01
2016-09-28T03:42:07.426Z,9.99
2016-09-28T03:43:07.958Z,10.01
2016-09-28T03:44:07.546Z,9.98
2016-09-28T03:45:08.060Z,10.00
2016-09-28T03:46:07.533Z,9.98
2016-09-28T03:47:08.095Z,10.03
2016-09-28T03:48:07.107Z,10.09
2016-09-28T03:49:07.599Z,10.06
2016-09-28T03:50:07.129Z,10.07
2016-09-28T03:51:07.629Z,10.06
2016-09-28T03:52:07.181Z,10.03
2016-09-28T03:53:07.602Z,9.97
2016-09-28T03:54:07.230Z,9.83
2016-09-28T03:55:07.749Z,9.77
2016-09-28T03:56:07.286Z,9.81
2016-09-28T03:57:07.862Z,9.83
2016-09-28T03:58:07.483Z,9.87
2016-09-28T03:59:08.068Z,9.87
2016-09-28T04:00:07.624Z,9.89
2016-09-28T04:01:07.193Z,9.83
2016-09-28T04:02:07.760Z,9.87
2016-09-28T04:03:07.302Z,9.95
2016-09-28T04:04:07.861Z,9.99
2016-09-28T04:05:07.447Z,10.03
2016-09-28T04:06:08.000Z,10.04
2016-09-28T04:07:07.483Z,10.03
2016-09-28T04:08:07.977Z,9.98
2016-09-28T04:09:07.481Z,9.96
2016-09-28T04:10:08.058Z,9.92
2016-09-28T04:11:07.660Z,9.92
2016-09-28T04:12:07.152Z,9.92
2016-09-28T04:13:07.652Z,9.86
2016-09-28T04:14:07.131Z,9.79
2016-09-28T04:15:07.718Z,9.83
2016-09-28T04:16:07.289Z,9.85
2016-09-28T04:17:07.806Z,9.83
2016-09-28T04:18:07.657Z,9.86
2016-09-28T04:19:07.144Z,9.88
2016-09-28T04:20:07.758Z,9.86
2016-09-28T04:21:07.262Z,9.87
2016-09-28T04:22:07.825Z,9.92
2016-09-28T04:23:07.346Z,9.92
2016-09-28T04:24:07.983Z,9.89
2016-09-28T04:25:10.293Z,9.91
2016-09-28T04:26:07.982Z,9.97
2016-09-28T04:27:07.497Z,9.91
2016-09-28T04:28:08.071Z,9.92
2016-09-28T04:29:07.499Z,9.92
2016-09-28T04:30:08.024Z,9.86
2016-09-28T04:31:07.560Z,9.89
2016-09-28T04:32:08.161Z,9.87
2016-09-28T04:33:07.573Z,9.92
2016-09-28T04:34:07.837Z,9.92
2016-09-28T04:35:07.362Z,9.86
2016-09-28T04:36:07.872Z,9.97
2016-09-28T04:37:07.343Z,9.99
2016-09-28T04:38:07.993Z,10.02
2016-09-28T04:39:07.497Z,10.03
2016-09-28T04:40:08.039Z,10.00
2016-09-28T04:41:07.900Z,10.00
2016-09-28T04:42:07.411Z,9.95
2016-09-28T04:43:08.000Z,9.96
2016-09-28T04:44:07.567Z,9.99
2016-09-28T04:45:08.070Z,10.04
2016-09-28T04:46:07.553Z,10.05
2016-09-28T04:47:08.161Z,10.06
2016-09-28T04:48:07.702Z,9.98
2016-09-28T04:49:07.261Z,10.03
2016-09-28T04:50:07.792Z,10.11
2016-09-28T04:51:07.320Z,10.10
2016-09-28T04:52:07.831Z,10.13
2016-09-28T04:53:07.312Z,10.11
2016-09-28T04:54:07.769Z,10.17
2016-09-28T04:55:07.290Z,10.24
2016-09-28T04:56:07.844Z,10.24
2016-09-28T04:57:07.410Z,10.24
2016-09-28T04:58:07.949Z,10.23
2016-09-28T04:59:07.430Z,10.22
2016-09-28T05:00:07.849Z,10.34
2016-09-28T05:01:08.020Z,10.34
2016-09-28T05:02:07.526Z,10.37
2016-09-28T05:03:08.083Z,10.52
2016-09-28T05:04:07.674Z,10.57
2016-09-28T05:05:07.173Z,10.69
2016-09-28T05:06:07.690Z,10.78
2016-09-28T05:07:07.194Z,10.85
2016-09-28T05:08:07.763Z,10.76
2016-09-28T05:09:07.301Z,10.82
2016-09-28T05:10:07.780Z,10.87
2016-09-28T05:11:07.261Z,10.89
2016-09-28T05:12:07.241Z,10.85
2016-09-28T05:13:07.700Z,10.91
2016-09-28T05:14:07.219Z,10.95
2016-09-28T05:15:07.778Z,10.73
2016-09-28T05:16:07.348Z,10.76
2016-09-28T05:17:08.069Z,10.81
2016-09-28T05:18:07.670Z,10.85
2016-09-28T05:19:07.114Z,10.97
2016-09-28T05:20:07.735Z,11.03
2016-09-28T05:21:07.299Z,10.98
2016-09-28T05:22:07.778Z,11.06
2016-09-28T05:23:07.290Z,11.14
2016-09-28T05:24:07.841Z,11.12
2016-09-28T05:25:07.290Z,11.10
2016-09-28T05:26:07.801Z,11.01
2016-09-28T05:27:07.267Z,11.06
2016-09-28T05:28:07.821Z,11.08
2016-09-28T05:29:07.322Z,11.08
2016-09-28T05:30:07.879Z,11.15
2016-09-28T05:31:07.437Z,11.14
2016-09-28T05:32:07.997Z,11.17
2016-09-28T05:33:07.560Z,11.18
2016-09-28T05:34:23.795Z,11.22
2016-09-28T05:35:07.420Z,11.22
2016-09-28T05:36:07.972Z,11.12
2016-09-28T05:37:07.541Z,11.15
2016-09-28T05:38:08.155Z,11.25
2016-09-28T05:39:07.731Z,11.32
2016-09-28T05:40:07.273Z,11.30
2016-09-28T05:41:07.928Z,11.33
2016-09-28T05:42:07.533Z,11.41
2016-09-28T05:43:08.039Z,11.43
2016-09-28T05:44:07.603Z,11.43
2016-09-28T05:45:07.092Z,11.45
2016-09-28T05:46:07.728Z,11.42
2016-09-28T05:47:07.279Z,11.50
2016-09-28T05:48:07.844Z,11.52
2016-09-28T05:49:07.417Z,11.45
2016-09-28T05:50:07.921Z,11.48
2016-09-28T05:51:07.572Z,11.53
2016-09-28T05:52:08.155Z,11.51
2016-09-28T05:53:07.967Z,11.43
2016-09-28T05:54:07.512Z,11.51
2016-09-28T05:55:07.180Z,11.49
2016-09-28T05:56:07.790Z,11.48
2016-09-28T05:57:07.285Z,11.50
2016-09-28T05:58:07.822Z,11.49
2016-09-28T05:59:07.312Z,11.49
2016-09-28T06:00:07.890Z,11.54
2016-09-28T06:01:07.544Z,11.56
2016-09-28T06:02:08.131Z,11.57
2016-09-28T06:03:07.685Z,11.56
2016-09-28T06:04:07.259Z,11.53
2016-09-28T06:05:07.833Z,11.54
2016-09-28T06:06:07.477Z,11.58
2016-09-28T06:07:08.025Z,11.59
2016-09-28T06:08:07.653Z,11.57
2016-09-28T06:09:07.085Z,11.53
2016-09-28T06:10:07.552Z,11.53
2016-09-28T06:11:08.090Z,11.54
2016-09-28T06:12:07.673Z,11.56
2016-09-28T06:13:07.126Z,11.59
2016-09-28T06:14:07.631Z,11.64
2016-09-28T06:15:07.105Z,11.67
2016-09-28T06:16:07.665Z,11.63
2016-09-28T06:17:07.264Z,11.62
2016-09-28T06:18:07.916Z,11.65
2016-09-28T06:19:07.400Z,11.62
2016-09-28T06:20:07.987Z,11.65
2016-09-28T06:21:07.453Z,11.71
2016-09-28T06:22:08.011Z,11.72
2016-09-28T06:23:07.553Z,11.78
2016-09-28T06:24:08.134Z,11.84
2016-09-28T06:25:07.724Z,11.82
2016-09-28T06:26:07.278Z,11.83
2016-09-28T06:27:07.900Z,11.82
2016-09-28T06:28:07.483Z,11.82
2016-09-28T06:29:08.173Z,11.85
2016-09-28T06:30:07.660Z,11.83
2016-09-28T06:31:07.124Z,11.74
2016-09-28T06:32:07.803Z,11.75
2016-09-28T06:33:07.431Z,11.76
2016-09-28T06:34:08.006Z,11.79
2016-09-28T06:35:07.593Z,11.82
2016-09-28T06:36:07.185Z,11.86
2016-09-28T06:37:07.813Z,11.91
2016-09-28T06:38:07.470Z,11.97
2016-09-28T06:39:07.994Z,12.02
2016-09-28T06:40:07.547Z,12.03
2016-09-28T06:41:08.123Z,12.01
2016-09-28T06:42:07.855Z,11.92
2016-09-28T06:43:07.353Z,11.97
2016-09-28T06:44:07.881Z,11.92
2016-09-28T06:45:07.382Z,11.96
2016-09-28T06:46:08.034Z,12.03
2016-09-28T06:47:07.635Z,12.13
2016-09-28T06:48:07.164Z,12.24
2016-09-28T06:49:07.653Z,12.29
2016-09-28T06:50:07.191Z,12.27
2016-09-28T06:51:07.801Z,12.34
2016-09-28T06:52:07.413Z,12.43
2016-09-28T06:53:08.164Z,12.47
2016-09-28T06:54:07.778Z,12.48
2016-09-28T06:55:07.358Z,12.48
2016-09-28T06:56:07.861Z,12.50
2016-09-28T06:57:07.348Z,12.55
2016-09-28T06:58:07.804Z,12.56
2016-09-28T06:59:07.322Z,12.56
2016-09-28T07:00:07.877Z,12.66
2016-09-28T07:01:07.364Z,12.69
2016-09-28T07:02:07.972Z,12.65
2016-09-28T07:03:07.568Z,12.61
2016-09-28T07:04:08.238Z,12.67
2016-09-28T07:05:07.805Z,12.72
2016-09-28T07:06:07.432Z,12.79
2016-09-28T07:07:08.016Z,12.85
2016-09-28T07:08:07.634Z,12.84
2016-09-28T07:09:07.172Z,12.81
2016-09-28T07:10:07.772Z,12.84
2016-09-28T07:11:07.297Z,12.88
2016-09-28T07:12:07.898Z,12.89
2016-09-28T07:13:07.417Z,12.91
2016-09-28T07:14:07.965Z,12.96
2016-09-28T07:15:07.535Z,13.00
2016-09-28T07:16:08.083Z,12.96
2016-09-28T07:17:07.774Z,13.06
2016-09-28T07:18:07.282Z,13.08
2016-09-28T07:19:07.849Z,13.13
2016-09-28T07:20:07.388Z,13.13
2016-09-28T07:21:07.975Z,13.17
2016-09-28T07:22:07.515Z,13.21
2016-09-28T07:23:07.996Z,13.28
2016-09-28T07:24:07.486Z,13.35
2016-09-28T07:25:08.067Z,13.35
2016-09-28T07:26:07.706Z,13.42
2016-09-28T07:27:07.205Z,13.43
2016-09-28T07:28:07.808Z,13.42
2016-09-28T07:29:07.276Z,13.44
2016-09-28T07:30:07.908Z,13.49
2016-09-28T07:31:07.373Z,13.53
2016-09-28T07:32:07.981Z,13.60
2016-09-28T07:33:07.536Z,13.62
2016-09-28T07:34:08.106Z,13.67
2016-09-28T07:35:07.663Z,13.73
2016-09-28T07:36:07.269Z,13.74
2016-09-28T07:37:07.841Z,13.79
2016-09-28T07:38:07.396Z,13.86
2016-09-28T07:39:07.952Z,13.91
2016-09-28T07:40:07.475Z,13.94
2016-09-28T07:41:08.016Z,14.01
2016-09-28T07:42:07.544Z,14.06
2016-09-28T07:43:08.131Z,14.08
2016-09-28T07:44:07.689Z,14.13
2016-09-28T07:45:07.236Z,14.19
2016-09-28T07:46:07.818Z,14.21
2016-09-28T07:47:07.445Z,14.25
2016-09-28T07:48:08.092Z,14.28
2016-09-28T07:49:07.588Z,14.31
2016-09-28T07:50:08.147Z,14.36
2016-09-28T07:51:07.574Z,14.37
2016-09-28T07:52:08.170Z,14.38
2016-09-28T07:53:07.474Z,14.39
2016-09-28T07:54:08.006Z,14.37
2016-09-28T07:55:07.469Z,14.43
2016-09-28T07:56:08.015Z,14.48
2016-09-28T07:57:07.564Z,14.53
2016-09-28T07:58:08.162Z,14.56
2016-09-28T07:59:07.776Z,14.56
2016-09-28T08:00:07.316Z,14.50
2016-09-28T08:01:07.844Z,14.55
2016-09-28T08:02:07.314Z,14.49
2016-09-28T08:03:07.822Z,14.52
2016-09-28T08:04:07.426Z,14.59
2016-09-28T08:05:07.993Z,14.59
2016-09-28T08:06:07.624Z,14.64
2016-09-28T08:07:07.174Z,14.70
2016-09-28T08:08:07.726Z,14.70
2016-09-28T08:09:07.239Z,14.71
2016-09-28T08:10:07.714Z,14.68
2016-09-28T08:11:07.170Z,14.72
2016-09-28T08:12:07.718Z,14.73
2016-09-28T08:13:07.215Z,14.78
2016-09-28T08:14:07.744Z,14.82
2016-09-28T08:15:07.216Z,14.84
2016-09-28T08:16:07.759Z,14.86
2016-09-28T08:17:07.425Z,14.91
2016-09-28T08:18:07.962Z,14.92
2016-09-28T08:19:07.586Z,14.92
2016-09-28T08:20:07.135Z,14.96
2016-09-28T08:21:07.688Z,15.02
2016-09-28T08:22:07.247Z,15.03
2016-09-28T08:23:07.609Z,15.07
2016-09-28T08:24:07.171Z,15.12
2016-09-28T08:25:07.599Z,15.17
2016-09-28T08:26:07.509Z,15.19
2016-09-28T08:27:08.069Z,15.23
2016-09-28T08:28:07.627Z,15.24
2016-09-28T08:29:07.160Z,15.26
2016-09-28T08:30:07.659Z,15.26
2016-09-28T08:31:07.110Z,15.31
2016-09-28T08:32:07.601Z,15.34
2016-09-28T08:33:07.547Z,15.38
2016-09-28T08:34:07.134Z,15.43
2016-09-28T08:35:07.700Z,15.47
2016-09-28T08:36:07.367Z,15.45
2016-09-28T08:37:07.929Z,15.44
2016-09-28T08:38:07.555Z,15.41
2016-09-28T08:39:08.119Z,15.42
2016-09-28T08:40:07.737Z,15.41
2016-09-28T08:41:07.200Z,15.44
2016-09-28T08:42:07.716Z,15.47
2016-09-28T08:43:07.236Z,15.50
2016-09-28T08:44:07.735Z,15.56
2016-09-28T08:45:07.238Z,15.55
2016-09-28T08:46:07.813Z,15.58
2016-09-28T08:47:07.441Z,15.55
2016-09-28T08:48:08.063Z,15.62
2016-09-28T08:49:07.537Z,15.66
2016-09-28T08:50:08.097Z,15.71
2016-09-28T08:51:07.604Z,15.75
2016-09-28T08:52:07.164Z,15.81
2016-09-28T08:53:07.766Z,15.86
2016-09-28T08:54:07.335Z,15.89
2016-09-28T08:55:07.892Z,15.97
2016-09-28T08:56:07.375Z,16.02
2016-09-28T08:57:07.851Z,16.05
2016-09-28T08:58:07.592Z,16.09
2016-09-28T08:59:07.160Z,16.10
2016-09-28T09:00:07.736Z,16.11
2016-09-28T09:01:07.279Z,16.12
2016-09-28T09:02:07.773Z,16.10
2016-09-28T09:03:07.443Z,16.05
2016-09-28T09:04:08.057Z,16.01
2016-09-28T09:05:07.623Z,15.99
2016-09-28T09:06:07.165Z,16.09
2016-09-28T09:07:07.745Z,16.07
2016-09-28T09:08:07.366Z,16.08
2016-09-28T09:09:07.947Z,16.06
2016-09-28T09:10:07.520Z,16.09
2016-09-28T09:11:08.092Z,16.11
2016-09-28T09:12:07.593Z,16.21
2016-09-28T09:13:07.137Z,16.25
2016-09-28T09:14:07.676Z,16.26
2016-09-28T09:15:07.259Z,16.31
2016-09-28T09:16:07.810Z,16.44
2016-09-28T09:17:07.498Z,16.40
2016-09-28T09:18:08.104Z,16.41
2016-09-28T09:19:07.741Z,16.46
2016-09-28T09:20:07.287Z,16.47
2016-09-28T09:21:07.848Z,16.49
2016-09-28T09:22:07.426Z,16.56
2016-09-28T09:23:07.960Z,16.58
2016-09-28T09:24:07.485Z,16.77
2016-09-28T09:25:08.007Z,16.70
2016-09-28T09:26:07.546Z,16.71
2016-09-28T09:27:08.125Z,16.68
2016-09-28T09:28:07.642Z,16.70
2016-09-28T09:29:07.157Z,16.74
2016-09-28T09:30:07.739Z,16.86
2016-09-28T09:31:07.245Z,16.88
2016-09-28T09:32:07.786Z,16.92
2016-09-28T09:33:07.251Z,16.91
2016-09-28T09:34:07.861Z,16.82
2016-09-28T09:35:07.447Z,16.79
2016-09-28T09:36:07.994Z,16.81
2016-09-28T09:37:07.177Z,16.87
2016-09-28T09:38:07.742Z,16.89
2016-09-28T09:39:07.232Z,17.02
2016-09-28T09:40:07.805Z,16.98
2016-09-28T09:41:07.274Z,17.07
2016-09-28T09:42:07.843Z,17.09
2016-09-28T09:43:07.285Z,17.03
2016-09-28T09:44:07.609Z,17.05
2016-09-28T09:45:07.144Z,17.09
2016-09-28T09:46:07.661Z,17.16
2016-09-28T09:47:07.256Z,17.27
2016-09-28T09:48:07.797Z,17.29
2016-09-28T09:49:07.324Z,17.26
2016-09-28T09:50:07.892Z,17.24
2016-09-28T09:51:07.447Z,17.33
2016-09-28T09:52:08.021Z,17.34
2016-09-28T09:53:07.544Z,17.32
2016-09-28T09:54:08.024Z,17.41
2016-09-28T09:55:07.504Z,17.39
2016-09-28T09:56:08.043Z,17.27
2016-09-28T09:57:07.603Z,17.21
2016-09-28T09:58:07.135Z,17.31
2016-09-28T09:59:07.752Z,17.34
2016-09-28T10:00:07.217Z,17.29
2016-09-28T10:01:07.784Z,17.26
2016-09-28T10:02:07.438Z,17.28
2016-09-28T10:03:07.967Z,17.26
2016-09-28T10:04:07.553Z,17.37
2016-09-28T10:05:08.127Z,17.34
2016-09-28T10:06:07.710Z,17.32
2016-09-28T10:07:07.224Z,17.31
2016-09-28T10:08:07.844Z,17.29
2016-09-28T10:09:07.454Z,17.30
2016-09-28T10:10:07.997Z,17.36
2016-09-28T10:11:07.546Z,17.44
2016-09-28T10:12:08.033Z,17.51
2016-09-28T10:13:07.566Z,17.50
2016-09-28T10:14:08.110Z,17.60
2016-09-28T10:15:07.674Z,17.62
2016-09-28T10:16:07.258Z,17.60
2016-09-28T10:17:08.060Z,17.56
2016-09-28T10:18:07.573Z,17.58
2016-09-28T10:19:08.204Z,17.68
2016-09-28T10:20:07.728Z,17.62
2016-09-28T10:21:07.254Z,17.67
2016-09-28T10:22:07.834Z,17.76
2016-09-28T10:23:07.414Z,17.87
2016-09-28T10:24:08.237Z,17.87
2016-09-28T10:25:07.853Z,17.95
2016-09-28T10:26:07.376Z,17.95
2016-09-28T10:27:07.953Z,17.92
2016-09-28T10:28:07.527Z,17.93
2016-09-28T10:29:08.160Z,17.95
2016-09-28T10:30:07.721Z,17.97
2016-09-28T10:31:07.204Z,17.99
2016-09-28T10:32:07.831Z,18.14
2016-09-28T10:33:07.358Z,18.13
2016-09-28T10:34:07.926Z,18.06
2016-09-28T10:35:07.575Z,18.04
2016-09-28T10:36:08.148Z,18.06
2016-09-28T10:37:07.701Z,18.19
2016-09-28T10:38:07.181Z,18.15
2016-09-28T10:39:07.783Z,18.26
2016-09-28T10:40:07.423Z,18.28
2016-09-28T10:41:07.944Z,18.22
2016-09-28T10:42:07.446Z,18.17
2016-09-28T10:43:08.139Z,18.17
2016-09-28T10:44:07.645Z,18.27
2016-09-28T10:45:07.208Z,18.38
2016-09-28T10:46:08.077Z,18.38
2016-09-28T10:47:07.713Z,18.41
2016-09-28T10:48:07.276Z,18.44
2016-09-28T10:49:07.579Z,18.38
2016-09-28T10:50:08.166Z,18.36
2016-09-28T10:51:07.733Z,18.44
2016-09-28T10:52:07.317Z,18.40
2016-09-28T10:53:07.911Z,18.49
2016-09-28T10:54:07.467Z,18.36
2016-09-28T10:55:08.030Z,18.52
2016-09-28T10:56:07.523Z,18.48
2016-09-28T10:57:08.109Z,18.52
2016-09-28T10:58:07.604Z,18.47
2016-09-28T10:59:07.125Z,18.37
2016-09-28T11:00:07.668Z,18.40
2016-09-28T11:01:07.143Z,18.30
2016-09-28T11:02:07.695Z,18.20
2016-09-28T11:03:07.264Z,18.17
2016-09-28T11:04:07.796Z,18.29
2016-09-28T11:05:07.388Z,18.40
2016-09-28T11:06:07.912Z,18.55
2016-09-28T11:07:07.497Z,18.37
2016-09-28T11:08:08.034Z,18.40
2016-09-28T11:09:07.633Z,18.60
2016-09-28T11:10:07.095Z,18.64
2016-09-28T11:11:07.675Z,18.71
2016-09-28T11:12:07.244Z,18.69
2016-09-28T11:13:07.858Z,18.64
2016-09-28T11:14:07.444Z,18.63
2016-09-28T11:15:07.976Z,18.69
2016-09-28T11:16:07.560Z,18.73
2016-09-28T11:17:08.277Z,18.64
2016-09-28T11:18:07.766Z,18.68
2016-09-28T11:19:07.272Z,18.74
2016-09-28T11:20:07.817Z,18.68
2016-09-28T11:21:07.394Z,18.65
2016-09-28T11:22:07.964Z,18.62
2016-09-28T11:23:07.517Z,18.77
2016-09-28T11:24:08.077Z,18.90
2016-09-28T11:25:07.587Z,18.89
2016-09-28T11:26:07.184Z,18.88
2016-09-28T11:27:07.715Z,18.96
2016-09-28T11:28:07.252Z,18.93
2016-09-28T11:29:07.769Z,18.89
2016-09-28T11:30:07.279Z,18.95
2016-09-28T11:31:07.884Z,19.02
2016-09-28T11:32:07.319Z,19.07
2016-09-28T11:33:08.046Z,19.05
2016-09-28T11:34:07.626Z,18.98
2016-09-28T11:35:07.237Z,19.03
2016-09-28T11:36:07.760Z,19.10
2016-09-28T11:37:07.270Z,19.23
2016-09-28T11:38:07.805Z,19.31
2016-09-28T11:39:07.377Z,19.28
2016-09-28T11:40:07.981Z,19.28
2016-09-28T11:41:07.500Z,19.22
2016-09-28T11:42:08.051Z,19.24
2016-09-28T11:43:07.521Z,19.23
2016-09-28T11:44:08.079Z,19.20
2016-09-28T11:45:07.644Z,19.20
2016-09-28T11:46:07.113Z,19.24
2016-09-28T11:47:07.637Z,19.25
2016-09-28T11:48:07.106Z,19.41
2016-09-28T11:49:07.767Z,19.44
2016-09-28T11:50:07.360Z,19.44
2016-09-28T11:51:07.990Z,19.61
2016-09-28T11:52:07.551Z,19.47
2016-09-28T11:53:08.086Z,19.52
2016-09-28T11:54:07.597Z,19.60
2016-09-28T11:55:07.170Z,19.65
2016-09-28T11:56:07.705Z,19.69
2016-09-28T11:57:07.181Z,19.69
2016-09-28T11:58:07.764Z,19.92
2016-09-28T11:59:07.244Z,19.92
2016-09-28T12:00:07.805Z,19.78
2016-09-28T12:01:07.346Z,19.74
2016-09-28T12:02:07.903Z,19.70
2016-09-28T12:03:07.376Z,19.77
2016-09-28T12:04:07.938Z,19.76
2016-09-28T12:05:07.536Z,19.75
2016-09-28T12:06:08.108Z,19.78
2016-09-28T12:07:07.775Z,19.78
2016-09-28T12:08:07.294Z,19.76
2016-09-28T12:09:07.943Z,19.74
2016-09-28T12:10:07.567Z,19.73
2016-09-28T12:11:08.167Z,19.74
2016-09-28T12:12:07.758Z,19.61
2016-09-28T12:13:07.330Z,19.63
2016-09-28T12:14:07.844Z,19.84
2016-09-28T12:15:07.417Z,19.85
2016-09-28T12:16:07.975Z,19.87
2016-09-28T12:17:07.675Z,19.83
2016-09-28T12:18:07.216Z,19.79
2016-09-28T12:19:07.810Z,19.79
2016-09-28T12:20:07.448Z,19.68
2016-09-28T12:21:08.288Z,19.57
2016-09-28T12:22:07.857Z,19.54
2016-09-28T12:23:07.465Z,19.63
2016-09-28T12:24:08.089Z,19.67
2016-09-28T12:25:07.709Z,19.62
2016-09-28T12:26:07.285Z,19.54
2016-09-28T12:27:07.899Z,19.45
2016-09-28T12:28:07.393Z,19.46
2016-09-28T12:29:08.022Z,19.43
2016-09-28T12:30:07.756Z,19.48
2016-09-28T12:31:07.314Z,19.50
2016-09-28T12:32:07.899Z,19.54
2016-09-28T12:33:07.433Z,19.63
2016-09-28T12:34:07.964Z,19.84
2016-09-28T12:35:07.557Z,19.88
2016-09-28T12:36:08.086Z,19.82
2016-09-28T12:37:07.588Z,19.91
2016-09-28T12:38:08.147Z,19.99
2016-09-28T12:39:07.809Z,19.94
2016-09-28T12:40:07.372Z,19.82
2016-09-28T12:41:07.945Z,19.79
2016-09-28T12:42:07.449Z,19.78
2016-09-28T12:43:07.976Z,19.90
2016-09-28T12:44:07.528Z,19.95
2016-09-28T12:45:08.157Z,19.96
2016-09-28T12:46:07.759Z,19.92
2016-09-28T12:47:07.266Z,19.87
2016-09-28T12:48:07.795Z,19.85
2016-09-28T12:49:07.400Z,19.80
2016-09-28T12:50:07.891Z,20.01
2016-09-28T12:51:07.498Z,20.10
2016-09-28T12:52:08.033Z,20.18
2016-09-28T12:53:07.718Z,20.21
2016-09-28T12:54:07.265Z,20.24
2016-09-28T12:55:07.836Z,20.30